Terminal Aerodrome Forecast
Issued by NWS Jackson, KY

Home | Current Version | Previous Version | Text Only | Print | Product List | Glossary On
Versions: 1 2 3 4 5 6 7 8 9 10 11 12 13 14 15 16 17 18 19 20
000
FTUS43 KJKL 201800 AAA
TAFLOZ
TAF AMD
KLOZ 201853Z 2019/2118 24007KT P6SM VCTS SCT025CB BKN035
     FM202210 23004KT P6SM SCT040 BKN200
     FM210500 VRB03KT 5SM BR VCTS SCT040CB=

USA.gov is the U.S. government's official web portal to all federal, state and local government web resources and services.